createdAt,value
2022-08-01T00:00:04.704Z,47.17
2022-08-01T00:02:32.148Z,47.11
2022-08-01T00:04:59.150Z,47.36
2022-08-01T00:07:25.667Z,47.17
2022-08-01T00:09:52.326Z,47.16
2022-08-01T00:12:18.748Z,48.17
2022-08-01T00:14:45.257Z,48.31
2022-08-01T00:17:11.674Z,47.96
2022-08-01T00:19:38.158Z,47.78
2022-08-01T00:22:04.921Z,48.75
2022-08-01T00:24:31.604Z,48.72
2022-08-01T00:26:58.035Z,48.89
2022-08-01T00:30:11.356Z,48.91
2022-08-01T00:32:11.188Z,48.98
2022-08-01T00:34:37.742Z,49.24
2022-08-01T00:37:04.178Z,49.40
2022-08-01T00:39:30.788Z,49.83
2022-08-01T00:41:59.402Z,51.41
2022-08-01T00:44:26.980Z,50.72
2022-08-01T00:46:53.858Z,51.04
2022-08-01T00:49:20.363Z,50.97
2022-08-01T00:51:46.990Z,51.61
2022-08-01T00:54:13.740Z,52.32
2022-08-01T00:56:44.309Z,52.77
2022-08-01T00:59:14.054Z,53.17
2022-08-01T01:01:46.535Z,53.76
2022-08-01T01:04:14.123Z,53.79
2022-08-01T01:07:08.153Z,53.18
2022-08-01T01:09:58.633Z,52.78
2022-08-01T01:12:41.639Z,52.82
2022-08-01T01:15:16.557Z,52.63
2022-08-01T01:17:52.179Z,52.67
2022-08-01T01:20:24.155Z,52.67
2022-08-01T01:22:53.726Z,52.39
2022-08-01T01:25:38.469Z,52.63
2022-08-01T01:28:20.429Z,52.26
2022-08-01T01:30:53.356Z,52.54
2022-08-01T01:33:21.722Z,52.66
2022-08-01T01:35:55.459Z,52.75
2022-08-01T01:38:27.410Z,53.15
2022-08-01T01:40:56.727Z,53.74
2022-08-01T01:43:28.716Z,53.56
2022-08-01T01:46:02.384Z,53.62
2022-08-01T01:48:29.935Z,55.30
2022-08-01T01:50:57.666Z,56.35
2022-08-01T01:53:25.792Z,56.83
2022-08-01T01:55:54.460Z,57.56
2022-08-01T01:58:22.073Z,57.77
2022-08-01T02:00:50.610Z,57.54
2022-08-01T02:03:19.131Z,57.48
2022-08-01T02:05:47.576Z,57.06
2022-08-01T02:08:17.309Z,57.38
2022-08-01T02:11:06.195Z,58.73
2022-08-01T02:13:35.197Z,59.59
2022-08-01T02:16:03.887Z,58.79
2022-08-01T02:18:31.154Z,57.83
2022-08-01T02:20:59.739Z,57.34
2022-08-01T02:23:33.487Z,56.52
2022-08-01T02:26:09.846Z,55.72
2022-08-01T02:29:06.712Z,56.04
2022-08-01T02:31:39.534Z,57.77
2022-08-01T02:34:10.371Z,59.37
2022-08-01T02:36:38.535Z,59.45
2022-08-01T02:39:10.039Z,59.29
2022-08-01T02:41:40.976Z,59.83
2022-08-01T02:44:10.202Z,59.36
2022-08-01T02:46:57.412Z,59.83
2022-08-01T02:49:27.133Z,58.80
2022-08-01T02:51:55.674Z,58.55
2022-08-01T02:54:23.751Z,59.04
2022-08-01T02:56:52.303Z,58.48
2022-08-01T02:59:22.419Z,57.90
2022-08-01T03:01:51.136Z,58.88
2022-08-01T03:04:19.705Z,59.52
2022-08-01T03:06:47.930Z,60.42
2022-08-01T03:09:16.670Z,60.37
2022-08-01T03:11:45.153Z,61.94
2022-08-01T03:14:12.973Z,62.28
2022-08-01T03:16:42.916Z,62.21
2022-08-01T03:19:11.944Z,60.59
2022-08-01T03:21:42.367Z,59.81
2022-08-01T03:24:11.042Z,59.75
2022-08-01T03:26:39.617Z,60.00
2022-08-01T03:29:10.746Z,59.84
2022-08-01T03:31:39.183Z,60.15
2022-08-01T03:34:06.830Z,60.53
2022-08-01T03:36:38.367Z,60.49
2022-08-01T03:39:09.318Z,60.46
2022-08-01T03:41:41.789Z,61.16
2022-08-01T03:44:16.209Z,61.23
2022-08-01T03:46:54.887Z,60.98
2022-08-01T03:49:26.735Z,61.17
2022-08-01T03:51:54.358Z,61.41
2022-08-01T03:54:28.104Z,61.52
2022-08-01T03:56:55.562Z,60.72
2022-08-01T03:59:22.880Z,61.03
2022-08-01T04:01:50.182Z,61.91
2022-08-01T04:04:17.130Z,61.06
2022-08-01T04:06:45.806Z,60.51
2022-08-01T04:09:15.729Z,61.27
2022-08-01T04:11:42.580Z,61.48
2022-08-01T04:14:09.552Z,61.50
2022-08-01T04:16:36.289Z,63.26
2022-08-01T04:19:03.589Z,63.61
2022-08-01T04:21:33.396Z,62.44
2022-08-01T04:24:06.296Z,62.70
2022-08-01T04:26:35.253Z,62.78
2022-08-01T04:29:03.577Z,63.77
2022-08-01T04:31:31.589Z,64.97
2022-08-01T04:34:02.910Z,66.04
2022-08-01T04:36:31.936Z,65.84
2022-08-01T04:39:01.067Z,66.46
2022-08-01T04:41:28.000Z,66.70
2022-08-01T04:43:55.986Z,67.05
2022-08-01T04:46:23.545Z,66.87
2022-08-01T04:48:51.059Z,67.59
2022-08-01T04:51:18.705Z,66.57
2022-08-01T04:53:46.734Z,65.51
2022-08-01T04:56:14.240Z,64.78
2022-08-01T04:58:42.089Z,64.90
2022-08-01T05:01:09.348Z,64.85
2022-08-01T05:03:38.966Z,64.25
2022-08-01T05:06:06.617Z,64.77
2022-08-01T05:08:33.052Z,64.21
2022-08-01T05:10:59.722Z,63.85
2022-08-01T05:13:26.606Z,63.89
2022-08-01T05:15:53.570Z,63.48
2022-08-01T05:18:27.882Z,62.95
2022-08-01T05:20:55.038Z,62.67
2022-08-01T05:23:24.878Z,61.66
2022-08-01T05:26:08.916Z,60.97
2022-08-01T05:28:36.118Z,60.72
2022-08-01T05:31:03.846Z,59.74
2022-08-01T05:33:30.351Z,58.32
2022-08-01T05:35:56.787Z,56.86
2022-08-01T05:38:23.389Z,55.46
2022-08-01T05:40:49.947Z,54.02
2022-08-01T05:43:16.448Z,53.11
2022-08-01T05:45:42.852Z,51.77
2022-08-01T05:48:09.300Z,50.52
2022-08-01T05:50:35.811Z,49.84
2022-08-01T05:53:02.395Z,48.80
2022-08-01T05:55:29.034Z,48.00
2022-08-01T05:57:56.739Z,47.64
2022-08-01T06:00:23.356Z,46.61
2022-08-01T06:02:49.808Z,46.35
2022-08-01T06:05:16.796Z,45.28
2022-08-01T06:07:43.415Z,44.80
2022-08-01T06:10:10.530Z,44.84
2022-08-01T06:12:37.613Z,45.45
2022-08-01T06:15:07.497Z,45.83
2022-08-01T06:17:34.273Z,46.17
2022-08-01T06:20:00.762Z,45.76
2022-08-01T06:22:27.628Z,45.63
2022-08-01T06:24:54.506Z,44.81
2022-08-01T06:27:21.600Z,43.96
2022-08-01T06:29:50.437Z,43.79
2022-08-01T06:32:26.199Z,42.55
2022-08-01T06:34:53.917Z,41.94
2022-08-01T06:37:20.774Z,42.10
2022-08-01T06:39:47.657Z,41.79
2022-08-01T06:42:15.767Z,41.00
2022-08-01T06:44:42.353Z,40.73
2022-08-01T06:47:08.865Z,41.11
2022-08-01T06:49:35.883Z,44.79
2022-08-01T06:52:02.521Z,45.19
2022-08-01T06:54:29.036Z,44.93
2022-08-01T06:56:55.492Z,44.06
2022-08-01T06:59:22.063Z,43.08
2022-08-01T07:01:48.530Z,40.88
2022-08-01T07:04:15.021Z,41.41
2022-08-01T07:06:41.446Z,40.33
2022-08-01T07:09:12.252Z,39.89
2022-08-01T07:11:40.840Z,39.37
2022-08-01T07:14:07.305Z,39.62
2022-08-01T07:16:33.900Z,39.93
2022-08-01T07:19:00.423Z,39.93
2022-08-01T07:21:40.369Z,39.83
2022-08-01T07:24:14.539Z,41.63
2022-08-01T07:26:54.087Z,41.11
2022-08-01T07:29:27.476Z,39.82
2022-08-01T07:31:55.814Z,38.66
2022-08-01T07:34:23.689Z,37.87
2022-08-01T07:36:50.379Z,37.64
2022-08-01T07:39:17.074Z,38.00
2022-08-01T07:41:53.195Z,37.60
2022-08-01T07:44:30.047Z,39.74
2022-08-01T07:46:56.612Z,40.92
2022-08-01T07:49:23.122Z,40.88
2022-08-01T07:52:13.581Z,41.51
2022-08-01T07:54:36.794Z,41.81
2022-08-01T07:57:04.152Z,42.47
2022-08-01T07:59:31.282Z,41.32
2022-08-01T08:01:58.007Z,39.83
2022-08-01T08:04:24.573Z,39.02
2022-08-01T08:06:51.074Z,38.56
2022-08-01T08:09:17.872Z,39.11
2022-08-01T08:11:47.844Z,39.98
2022-08-01T08:14:18.261Z,42.32
2022-08-01T08:16:44.901Z,45.45
2022-08-01T08:19:12.329Z,44.09
2022-08-01T08:21:39.139Z,43.21
2022-08-01T08:24:26.960Z,43.55
2022-08-01T08:26:56.983Z,42.74
2022-08-01T08:29:24.155Z,43.00
2022-08-01T08:31:52.987Z,44.30
2022-08-01T08:34:20.386Z,45.84
2022-08-01T08:36:48.230Z,46.61
2022-08-01T08:39:16.548Z,46.14
2022-08-01T08:41:46.063Z,44.92
2022-08-01T08:44:17.258Z,44.54
2022-08-01T08:46:49.711Z,43.22
2022-08-01T08:49:19.780Z,42.04
2022-08-01T08:51:49.888Z,40.86
2022-08-01T08:54:17.409Z,41.83
2022-08-01T08:56:45.322Z,42.08
2022-08-01T08:59:16.483Z,42.57
2022-08-01T09:01:43.786Z,41.50
2022-08-01T09:04:11.198Z,41.39
2022-08-01T09:06:38.489Z,41.51
2022-08-01T09:09:06.744Z,41.43
2022-08-01T09:11:34.905Z,41.35
2022-08-01T09:14:07.558Z,41.55
2022-08-01T09:16:35.917Z,40.30
2022-08-01T09:19:16.377Z,40.85
2022-08-01T09:22:04.432Z,40.99
2022-08-01T09:24:32.696Z,40.61
2022-08-01T09:26:59.915Z,40.84
2022-08-01T09:29:38.338Z,40.15
2022-08-01T09:32:08.561Z,40.98
2022-08-01T09:34:42.725Z,41.21
2022-08-01T09:37:10.607Z,41.02
2022-08-01T09:39:41.145Z,41.19
2022-08-01T09:42:28.672Z,41.36
2022-08-01T09:44:56.283Z,40.95
2022-08-01T09:47:23.620Z,40.54
2022-08-01T09:49:56.361Z,41.05
2022-08-01T09:52:29.111Z,41.21
2022-08-01T09:55:04.008Z,41.17
2022-08-01T09:57:31.097Z,41.35
2022-08-01T10:00:02.238Z,40.53
2022-08-01T10:02:41.025Z,39.92
2022-08-01T10:05:10.207Z,40.98
2022-08-01T10:07:55.375Z,40.56
2022-08-01T10:10:28.670Z,41.01
2022-08-01T10:12:57.846Z,40.50
2022-08-01T10:15:37.334Z,39.91
2022-08-01T10:18:16.494Z,40.03
2022-08-01T10:20:53.000Z,39.61
2022-08-01T10:23:40.722Z,38.32
2022-08-01T10:26:09.285Z,37.96
2022-08-01T10:28:39.295Z,38.74
2022-08-01T10:31:14.415Z,38.28
2022-08-01T10:33:51.865Z,38.34
2022-08-01T10:36:25.423Z,37.94
2022-08-01T10:38:53.615Z,36.63
2022-08-01T10:41:21.887Z,36.69
2022-08-01T10:43:48.626Z,36.60
2022-08-01T10:46:18.397Z,36.13
2022-08-01T10:49:01.834Z,35.77
2022-08-01T10:51:52.255Z,36.37
2022-08-01T10:54:15.548Z,36.86
2022-08-01T10:56:48.684Z,36.94
2022-08-01T10:59:50.224Z,36.96
2022-08-01T11:02:09.077Z,36.58
2022-08-01T11:04:55.033Z,36.09
2022-08-01T11:07:45.617Z,36.46
2022-08-01T11:10:35.061Z,35.62
2022-08-01T11:13:04.420Z,34.85
2022-08-01T11:15:31.641Z,35.30
2022-08-01T11:18:00.922Z,35.16
2022-08-01T11:20:34.197Z,35.07
2022-08-01T11:23:05.966Z,35.53
2022-08-01T11:26:03.031Z,35.63
2022-08-01T11:28:30.189Z,35.22
2022-08-01T11:31:07.841Z,34.83
2022-08-01T11:33:41.213Z,34.80
2022-08-01T11:36:14.508Z,34.69
2022-08-01T11:38:46.929Z,35.05
2022-08-01T11:41:14.453Z,34.82
2022-08-01T11:44:00.530Z,34.94
2022-08-01T11:46:57.792Z,34.64
2022-08-01T11:49:33.794Z,33.81
2022-08-01T11:52:04.224Z,33.53
2022-08-01T11:54:38.128Z,33.29
2022-08-01T11:57:07.396Z,34.29
2022-08-01T12:00:03.632Z,34.66
2022-08-01T12:02:38.723Z,35.30
2022-08-01T12:05:12.082Z,34.94
2022-08-01T12:07:42.176Z,35.09
2022-08-01T12:10:14.184Z,35.68
2022-08-01T12:12:46.342Z,35.57
2022-08-01T12:15:13.975Z,35.24
2022-08-01T12:17:58.459Z,35.85
2022-08-01T12:20:32.103Z,35.89
2022-08-01T12:23:02.008Z,35.10
2022-08-01T12:25:28.857Z,35.23
2022-08-01T12:27:56.832Z,34.91
2022-08-01T12:30:25.266Z,34.96
2022-08-01T12:32:54.564Z,35.06
2022-08-01T12:35:24.244Z,35.03
2022-08-01T12:37:56.383Z,35.56
2022-08-01T12:40:36.685Z,35.09
2022-08-01T12:43:07.139Z,34.89
2022-08-01T12:45:40.616Z,35.23
2022-08-01T12:48:21.468Z,35.27
2022-08-01T12:50:50.715Z,35.43
2022-08-01T12:53:19.468Z,34.55
2022-08-01T12:55:58.551Z,34.18
2022-08-01T12:58:32.277Z,33.60
2022-08-01T13:01:10.157Z,33.63
2022-08-01T13:03:37.171Z,32.59
2022-08-01T13:06:13.254Z,33.73
2022-08-01T13:08:39.911Z,33.40
2022-08-01T13:11:15.335Z,33.20
2022-08-01T13:13:50.598Z,33.50
2022-08-01T13:16:31.213Z,33.31
2022-08-01T13:19:07.122Z,33.65
2022-08-01T13:21:54.197Z,33.92
2022-08-01T13:24:29.399Z,33.89
2022-08-01T13:27:04.949Z,33.86
2022-08-01T13:29:40.943Z,33.63
2022-08-01T13:32:29.702Z,33.64
2022-08-01T13:35:08.564Z,34.02
2022-08-01T13:37:37.073Z,33.73
2022-08-01T13:40:05.343Z,34.20
2022-08-01T13:42:32.835Z,33.98
2022-08-01T13:44:59.248Z,33.75
2022-08-01T13:47:31.721Z,34.20
2022-08-01T13:50:03.589Z,34.23
2022-08-01T13:52:31.599Z,34.20
2022-08-01T13:54:58.628Z,34.67
2022-08-01T13:57:25.078Z,34.68
2022-08-01T13:59:52.473Z,34.58
2022-08-01T14:02:20.544Z,34.95
2022-08-01T14:04:47.469Z,34.96
2022-08-01T14:07:15.066Z,35.00
2022-08-01T14:10:04.572Z,35.06
2022-08-01T14:12:29.793Z,35.01
2022-08-01T14:14:57.253Z,35.33
2022-08-01T14:17:23.980Z,35.30
2022-08-01T14:19:50.476Z,35.57
2022-08-01T14:22:17.059Z,35.94
2022-08-01T14:24:43.487Z,35.76
2022-08-01T14:27:11.078Z,35.29
2022-08-01T14:30:01.198Z,35.32
2022-08-01T14:32:28.587Z,36.17
2022-08-01T14:34:55.763Z,35.21
2022-08-01T14:37:22.307Z,35.48
2022-08-01T14:39:56.143Z,35.64
2022-08-01T14:42:22.717Z,35.21
2022-08-01T14:44:49.799Z,34.85
2022-08-01T14:47:22.074Z,35.15
2022-08-01T14:49:49.820Z,34.65
2022-08-01T14:52:16.673Z,34.85
2022-08-01T14:54:43.310Z,35.48
2022-08-01T14:57:09.880Z,35.16
2022-08-01T14:59:36.854Z,35.91
2022-08-01T15:02:04.100Z,36.21
2022-08-01T15:04:31.428Z,35.92
2022-08-01T15:06:57.975Z,36.24
2022-08-01T15:09:24.387Z,36.82
2022-08-01T15:11:50.863Z,36.69
2022-08-01T15:14:36.146Z,36.85
2022-08-01T15:17:02.808Z,37.18
2022-08-01T15:19:29.518Z,37.21
2022-08-01T15:21:55.954Z,37.03
2022-08-01T15:24:22.426Z,37.27
2022-08-01T15:26:48.936Z,37.29
2022-08-01T15:29:16.723Z,37.31
2022-08-01T15:31:44.773Z,37.44
2022-08-01T15:34:11.770Z,37.42
2022-08-01T15:36:38.230Z,37.64
2022-08-01T15:39:09.680Z,37.55
2022-08-01T15:41:36.124Z,37.42
2022-08-01T15:44:02.712Z,37.46
2022-08-01T15:46:29.521Z,38.12
2022-08-01T15:48:56.096Z,38.23
2022-08-01T15:51:23.729Z,37.83
2022-08-01T15:53:50.139Z,38.24
2022-08-01T15:56:16.568Z,37.86
2022-08-01T15:58:43.184Z,38.05
2022-08-01T16:01:09.685Z,38.41
2022-08-01T16:03:36.105Z,38.34
2022-08-01T16:06:02.671Z,38.36
2022-08-01T16:08:29.122Z,38.42
2022-08-01T16:10:55.647Z,38.40
2022-08-01T16:13:22.154Z,38.72
2022-08-01T16:15:48.613Z,38.89
2022-08-01T16:18:16.022Z,39.15
2022-08-01T16:20:45.710Z,39.16
2022-08-01T16:23:13.937Z,39.16
2022-08-01T16:25:40.754Z,39.29
2022-08-01T16:28:07.322Z,39.30
2022-08-01T16:30:33.931Z,39.21
2022-08-01T16:33:04.810Z,39.15
2022-08-01T16:35:36.446Z,39.32
2022-08-01T16:38:04.690Z,39.00
2022-08-01T16:40:31.726Z,38.87
2022-08-01T16:43:16.391Z,39.12
2022-08-01T16:45:43.371Z,39.56
2022-08-01T16:48:12.368Z,39.41
2022-08-01T16:50:39.404Z,39.46
2022-08-01T16:53:05.876Z,39.46
2022-08-01T16:55:49.631Z,40.15
2022-08-01T16:58:27.829Z,40.04
2022-08-01T17:01:53.522Z,40.03
2022-08-01T17:03:52.430Z,39.69
2022-08-01T17:06:22.403Z,40.29
2022-08-01T17:08:49.847Z,39.88
2022-08-01T17:11:16.706Z,40.44
2022-08-01T17:13:43.690Z,40.56
2022-08-01T17:16:11.083Z,40.82
2022-08-01T17:18:37.792Z,40.96
2022-08-01T17:21:04.237Z,40.57
2022-08-01T17:23:31.746Z,40.83
2022-08-01T17:25:58.849Z,40.80
2022-08-01T17:28:26.087Z,40.47
2022-08-01T17:30:52.531Z,40.73
2022-08-01T17:33:20.556Z,40.64
2022-08-01T17:35:47.121Z,41.03
2022-08-01T17:38:13.608Z,41.38
2022-08-01T17:40:41.116Z,40.96
2022-08-01T17:43:08.495Z,42.17
2022-08-01T17:45:39.389Z,41.81
2022-08-01T17:48:17.803Z,41.39
2022-08-01T17:50:45.316Z,41.83
2022-08-01T17:53:12.864Z,41.77
2022-08-01T17:55:56.079Z,41.66
2022-08-01T17:58:51.346Z,41.66
2022-08-01T18:01:16.134Z,41.79
2022-08-01T18:03:43.453Z,41.88
2022-08-01T18:06:13.611Z,41.82
2022-08-01T18:08:41.818Z,42.12
2022-08-01T18:11:09.254Z,42.66
2022-08-01T18:13:36.539Z,42.79
2022-08-01T18:16:08.817Z,42.50
2022-08-01T18:18:35.571Z,42.91
2022-08-01T18:21:02.961Z,42.84
2022-08-01T18:23:29.655Z,42.95
2022-08-01T18:25:56.219Z,43.04
2022-08-01T18:28:33.761Z,43.03
2022-08-01T18:31:03.650Z,43.23
2022-08-01T18:33:30.312Z,43.58
2022-08-01T18:36:01.871Z,42.91
2022-08-01T18:38:32.805Z,43.59
2022-08-01T18:41:00.958Z,43.49
2022-08-01T18:43:28.110Z,43.58
2022-08-01T18:45:57.111Z,43.48
2022-08-01T18:48:24.423Z,43.21
2022-08-01T18:50:50.962Z,43.55
2022-08-01T18:53:18.635Z,43.44
2022-08-01T18:55:45.268Z,43.73
2022-08-01T18:58:11.790Z,44.01
2022-08-01T19:00:39.678Z,44.56
2022-08-01T19:03:06.310Z,45.19
2022-08-01T19:05:34.872Z,45.38
2022-08-01T19:08:06.194Z,46.62
2022-08-01T19:10:39.181Z,47.07
2022-08-01T19:13:06.236Z,47.65
2022-08-01T19:15:32.744Z,47.98
2022-08-01T19:17:59.907Z,48.53
2022-08-01T19:20:28.068Z,48.98
2022-08-01T19:22:55.335Z,49.25
2022-08-01T19:25:22.617Z,49.24
2022-08-01T19:27:50.395Z,50.04
2022-08-01T19:30:18.727Z,50.09
2022-08-01T19:32:46.919Z,50.62
2022-08-01T19:35:16.599Z,49.87
2022-08-01T19:37:46.890Z,49.72
2022-08-01T19:40:26.256Z,49.62
2022-08-01T19:42:55.754Z,49.93
2022-08-01T19:45:22.565Z,50.25
2022-08-01T19:47:56.198Z,50.61
2022-08-01T19:50:28.607Z,50.28
2022-08-01T19:53:03.109Z,50.28
2022-08-01T19:55:39.277Z,50.27
2022-08-01T19:58:26.409Z,51.39
2022-08-01T20:00:54.530Z,51.29
2022-08-01T20:03:22.325Z,50.87
2022-08-01T20:05:50.599Z,50.49
2022-08-01T20:08:20.661Z,50.05
2022-08-01T20:10:48.358Z,49.73
2022-08-01T20:13:16.029Z,49.66
2022-08-01T20:15:43.156Z,49.43
2022-08-01T20:18:09.905Z,50.18
2022-08-01T20:20:38.031Z,49.62
2022-08-01T20:23:10.552Z,50.77
2022-08-01T20:25:48.186Z,50.93
2022-08-01T20:28:15.979Z,50.53
2022-08-01T20:30:43.826Z,50.43
2022-08-01T20:33:12.154Z,50.59
2022-08-01T20:35:52.382Z,51.10
2022-08-01T20:38:27.643Z,52.08
2022-08-01T20:40:58.795Z,52.95
2022-08-01T20:43:27.410Z,53.67
2022-08-01T20:45:55.675Z,53.50
2022-08-01T20:48:25.710Z,52.96
2022-08-01T20:51:11.254Z,52.63
2022-08-01T20:53:41.939Z,52.65
2022-08-01T20:56:20.719Z,52.00
2022-08-01T20:59:55.379Z,52.26
2022-08-01T21:02:09.381Z,52.38
2022-08-01T21:04:57.029Z,53.27
2022-08-01T21:07:38.417Z,53.57
2022-08-01T21:10:08.329Z,53.50
2022-08-01T21:13:00.794Z,53.35
2022-08-01T21:16:04.167Z,53.61
2022-08-01T21:18:37.862Z,52.94
2022-08-01T21:21:17.386Z,53.69
2022-08-01T21:24:00.391Z,53.81
2022-08-01T21:26:27.154Z,54.34
2022-08-01T21:28:55.824Z,54.40
2022-08-01T21:31:25.002Z,54.21
2022-08-01T21:34:02.789Z,54.09
2022-08-01T21:36:30.971Z,53.83
2022-08-01T21:38:58.620Z,54.42
2022-08-01T21:41:56.765Z,54.33
2022-08-01T21:44:16.015Z,55.26
2022-08-01T21:46:43.071Z,55.14
2022-08-01T21:49:10.291Z,54.85
2022-08-01T21:51:51.927Z,54.59
2022-08-01T21:54:34.753Z,54.41
2022-08-01T21:57:15.725Z,54.68
2022-08-01T22:00:02.655Z,54.54
2022-08-01T22:03:00.358Z,55.82
2022-08-01T22:05:49.682Z,55.32
2022-08-01T22:08:23.768Z,55.40
2022-08-01T22:10:57.696Z,55.27
2022-08-01T22:13:24.342Z,56.01
2022-08-01T22:15:52.195Z,56.26
2022-08-01T22:18:19.025Z,55.64
2022-08-01T22:20:47.180Z,55.87
2022-08-01T22:23:14.468Z,55.86
2022-08-01T22:25:41.607Z,56.17
2022-08-01T22:28:10.212Z,55.79
2022-08-01T22:30:41.902Z,55.77
2022-08-01T22:33:17.022Z,56.28
2022-08-01T22:35:46.608Z,56.29
2022-08-01T22:38:13.256Z,56.62
2022-08-01T22:40:49.393Z,56.70
2022-08-01T22:43:25.155Z,57.88
2022-08-01T22:46:07.203Z,57.68
2022-08-01T22:48:44.794Z,58.49
2022-08-01T22:51:55.154Z,58.42
2022-08-01T22:54:34.031Z,59.87
2022-08-01T22:57:07.180Z,60.20
2022-08-01T22:59:46.046Z,59.68
2022-08-01T23:02:16.606Z,60.45
2022-08-01T23:04:46.314Z,60.07
2022-08-01T23:07:19.313Z,60.48
2022-08-01T23:09:54.334Z,59.13
2022-08-01T23:12:23.914Z,58.94
2022-08-01T23:14:53.606Z,61.63
2022-08-01T23:17:27.688Z,61.77
2022-08-01T23:20:06.776Z,61.74
2022-08-01T23:22:36.284Z,62.21
2022-08-01T23:25:06.926Z,62.51
2022-08-01T23:28:04.381Z,62.08
2022-08-01T23:30:31.256Z,62.86
2022-08-01T23:32:58.150Z,61.43
2022-08-01T23:35:26.411Z,60.82
2022-08-01T23:37:53.221Z,60.19
2022-08-01T23:40:20.537Z,60.53
2022-08-01T23:42:47.223Z,62.61
2022-08-01T23:45:13.947Z,61.53
2022-08-01T23:47:40.467Z,62.58
2022-08-01T23:50:08.550Z,63.82
2022-08-01T23:52:36.783Z,64.66
2022-08-01T23:55:15.901Z,63.88
2022-08-01T23:57:42.724Z,62.63
